sensor_id;sensor_type;location;lat;lon;timestamp;pressure;altitude;pressure_sealevel;temperature;humidity
77631;BME280;66798;47.370;8.552;2023-08-06T05:24:15;96172.94;;;13.77;81.94
77631;BME280;66798;47.370;8.552;2023-08-06T05:26:40;96186.13;;;13.91;84.41
77631;BME280;66798;47.370;8.552;2023-08-06T05:29:06;96195.16;;;13.76;83.73
77631;BME280;66798;47.370;8.552;2023-08-06T05:31:31;96194.97;;;13.72;84.41
77631;BME280;66798;47.370;8.552;2023-08-06T05:33:56;96190.38;;;13.78;84.25
77631;BME280;66798;47.370;8.552;2023-08-06T05:36:22;96184.56;;;13.90;83.60
77631;BME280;66798;47.370;8.552;2023-08-06T05:38:47;96188.16;;;13.94;82.83
77631;BME280;66798;47.370;8.552;2023-08-06T05:41:13;96192.38;;;13.95;81.67
77631;BME280;66798;47.370;8.552;2023-08-06T05:43:38;96191.63;;;13.94;82.25
77631;BME280;66798;47.370;8.552;2023-08-06T05:46:04;96193.69;;;13.84;81.88
77631;BME280;66798;47.370;8.552;2023-08-06T05:48:29;96189.38;;;13.88;81.79
77631;BME280;66798;47.370;8.552;2023-08-06T05:50:55;96195.16;;;13.76;81.29
77631;BME280;66798;47.370;8.552;2023-08-06T05:53:20;96198.97;;;13.84;82.00
77631;BME280;66798;47.370;8.552;2023-08-06T05:55:47;96198.97;;;13.84;79.39
77631;BME280;66798;47.370;8.552;2023-08-06T05:58:12;96191.78;;;13.98;79.48
77631;BME280;66798;47.370;8.552;2023-08-06T06:00:38;96190.13;;;14.02;79.96
77631;BME280;66798;47.370;8.552;2023-08-06T06:03:03;96188.22;;;14.16;79.94
77631;BME280;66798;47.370;8.552;2023-08-06T06:05:28;96191.72;;;14.26;79.34
77631;BME280;66798;47.370;8.552;2023-08-06T06:07:54;96201.69;;;14.29;79.25
77631;BME280;66798;47.370;8.552;2023-08-06T06:10:20;96197.78;;;14.26;78.47
77631;BME280;66798;47.370;8.552;2023-08-06T06:12:45;96203.31;;;14.38;77.08
77631;BME280;66798;47.370;8.552;2023-08-06T06:15:10;96192.25;;;14.36;77.21
77631;BME280;66798;47.370;8.552;2023-08-06T06:17:36;96197.44;;;14.64;78.12
77631;BME280;66798;47.370;8.552;2023-08-06T06:20:02;96200.91;;;14.51;75.73
77631;BME280;66798;47.370;8.552;2023-08-06T06:22:29;96200.81;;;14.56;76.01
77631;BME280;66798;47.370;8.552;2023-08-06T06:24:55;96209.91;;;14.63;75.06
77631;BME280;66798;47.370;8.552;2023-08-06T06:27:20;96190.31;;;14.51;73.42
77631;BME280;66798;47.370;8.552;2023-08-06T06:29:46;96210.81;;;14.59;76.85
77631;BME280;66798;47.370;8.552;2023-08-06T06:32:11;96207.72;;;14.97;75.75
77631;BME280;66798;47.370;8.552;2023-08-06T06:34:38;96216.22;;;15.56;74.57
77631;BME280;66798;47.370;8.552;2023-08-06T06:37:03;96211.53;;;16.37;74.93
77631;BME280;66798;47.370;8.552;2023-08-06T06:39:29;96224.78;;;16.97;69.71
77631;BME280;66798;47.370;8.552;2023-08-06T06:41:54;96216.81;;;16.89;67.19
77631;BME280;66798;47.370;8.552;2023-08-06T06:44:20;96224.94;;;16.84;68.05
77631;BME280;66798;47.370;8.552;2023-08-06T06:46:46;96237.75;;;16.90;68.05
77631;BME280;66798;47.370;8.552;2023-08-06T06:49:11;96232.88;;;17.01;67.57
77631;BME280;66798;47.370;8.552;2023-08-06T06:51:37;96240.00;;;17.18;64.43
77631;BME280;66798;47.370;8.552;2023-08-06T06:54:02;96266.03;;;16.69;63.84
77631;BME280;66798;47.370;8.552;2023-08-06T06:56:28;96253.38;;;16.74;67.41
77631;BME280;66798;47.370;8.552;2023-08-06T06:58:53;96243.84;;;16.82;67.04
77631;BME280;66798;47.370;8.552;2023-08-06T07:01:18;96253.69;;;16.38;65.02
77631;BME280;66798;47.370;8.552;2023-08-06T07:03:44;96258.69;;;16.74;68.47
77631;BME280;66798;47.370;8.552;2023-08-06T07:06:09;96263.38;;;16.34;67.79
77631;BME280;66798;47.370;8.552;2023-08-06T07:08:35;96256.63;;;16.02;67.36
77631;BME280;66798;47.370;8.552;2023-08-06T07:11:21;96252.41;;;16.01;69.15
77631;BME280;66798;47.370;8.552;2023-08-06T07:13:47;96269.69;;;15.89;71.19
77631;BME280;66798;47.370;8.552;2023-08-06T07:16:12;96266.88;;;15.46;72.24
77631;BME280;66798;47.370;8.552;2023-08-06T07:18:38;96267.78;;;15.33;74.37
77631;BME280;66798;47.370;8.552;2023-08-06T07:21:03;96268.06;;;15.31;74.23
77631;BME280;66798;47.370;8.552;2023-08-06T07:23:29;96267.31;;;15.39;71.85
77631;BME280;66798;47.370;8.552;2023-08-06T07:25:54;96262.22;;;15.20;73.14
77631;BME280;66798;47.370;8.552;2023-08-06T07:28:20;96259.31;;;15.62;74.04
77631;BME280;66798;47.370;8.552;2023-08-06T07:30:45;96275.28;;;15.79;73.75
77631;BME280;66798;47.370;8.552;2023-08-06T07:33:11;96269.53;;;15.86;70.43
77631;BME280;66798;47.370;8.552;2023-08-06T07:35:37;96267.78;;;15.73;71.39
77631;BME280;66798;47.370;8.552;2023-08-06T07:38:03;96278.59;;;15.93;71.95
77631;BME280;66798;47.370;8.552;2023-08-06T07:40:28;96280.50;;;16.02;71.03
77631;BME280;66798;47.370;8.552;2023-08-06T07:42:54;96272.72;;;16.05;69.62
77631;BME280;66798;47.370;8.552;2023-08-06T07:45:20;96297.13;;;15.76;68.76
77631;BME280;66798;47.370;8.552;2023-08-06T07:47:45;96300.25;;;15.78;68.99
77631;BME280;66798;47.370;8.552;2023-08-06T07:50:11;96305.28;;;15.88;72.08
77631;BME280;66798;47.370;8.552;2023-08-06T07:52:37;96301.13;;;16.05;71.80
77631;BME280;66798;47.370;8.552;2023-08-06T07:55:02;96300.13;;;15.83;72.74
77631;BME280;66798;47.370;8.552;2023-08-06T07:57:33;96314.16;;;15.84;72.01
77631;BME280;66798;47.370;8.552;2023-08-06T08:00:00;96315.69;;;15.45;72.93
77631;BME280;66798;47.370;8.552;2023-08-06T08:02:25;96324.19;;;15.33;74.24
77631;BME280;66798;47.370;8.552;2023-08-06T08:04:51;96328.19;;;15.53;74.68
77631;BME280;66798;47.370;8.552;2023-08-06T08:07:16;96320.09;;;15.49;76.68
77631;BME280;66798;47.370;8.552;2023-08-06T08:09:42;96326.09;;;15.41;76.83
77631;BME280;66798;47.370;8.552;2023-08-06T08:12:07;96317.53;;;15.44;75.80
77631;BME280;66798;47.370;8.552;2023-08-06T08:14:33;96326.72;;;15.38;77.19
77631;BME280;66798;47.370;8.552;2023-08-06T08:17:03;96340.38;;;15.54;77.99
77631;BME280;66798;47.370;8.552;2023-08-06T08:19:29;96327.47;;;15.07;76.11
77631;BME280;66798;47.370;8.552;2023-08-06T08:21:55;96346.38;;;15.15;77.99
77631;BME280;66798;47.370;8.552;2023-08-06T08:24:20;96335.91;;;15.10;79.31
77631;BME280;66798;47.370;8.552;2023-08-06T08:26:49;96342.34;;;14.58;78.42
77631;BME280;66798;47.370;8.552;2023-08-06T08:29:15;96339.63;;;14.86;79.75
77631;BME280;66798;47.370;8.552;2023-08-06T08:31:40;96338.72;;;14.91;79.37
77631;BME280;66798;47.370;8.552;2023-08-06T08:34:06;96338.69;;;15.04;80.36
77631;BME280;66798;47.370;8.552;2023-08-06T08:36:31;96357.78;;;14.79;79.28
77631;BME280;66798;47.370;8.552;2023-08-06T08:38:57;96342.94;;;14.41;78.29
77631;BME280;66798;47.370;8.552;2023-08-06T08:41:23;96346.81;;;14.21;79.84
77631;BME280;66798;47.370;8.552;2023-08-06T08:43:51;96347.84;;;14.48;81.18
77631;BME280;66798;47.370;8.552;2023-08-06T08:46:19;96361.28;;;14.52;80.83
77631;BME280;66798;47.370;8.552;2023-08-06T08:48:45;96355.41;;;14.55;79.26
77631;BME280;66798;47.370;8.552;2023-08-06T08:51:12;96351.88;;;14.45;80.16
77631;BME280;66798;47.370;8.552;2023-08-06T08:53:39;96341.28;;;14.32;80.52
77631;BME280;66798;47.370;8.552;2023-08-06T08:56:05;96344.22;;;14.44;80.26
77631;BME280;66798;47.370;8.552;2023-08-06T08:58:31;96352.19;;;14.30;81.14
77631;BME280;66798;47.370;8.552;2023-08-06T09:00:57;96350.97;;;14.64;82.50
77631;BME280;66798;47.370;8.552;2023-08-06T09:03:23;96351.59;;;14.83;82.69
77631;BME280;66798;47.370;8.552;2023-08-06T09:05:52;96366.88;;;14.86;82.12
77631;BME280;66798;47.370;8.552;2023-08-06T09:08:26;96358.00;;;15.05;81.44
77631;BME280;66798;47.370;8.552;2023-08-06T09:10:53;96362.00;;;15.25;80.67
77631;BME280;66798;47.370;8.552;2023-08-06T09:13:19;96371.66;;;14.98;80.19
77631;BME280;66798;47.370;8.552;2023-08-06T09:15:46;96365.63;;;14.84;81.66
77631;BME280;66798;47.370;8.552;2023-08-06T09:18:12;96365.97;;;14.69;80.93
77631;BME280;66798;47.370;8.552;2023-08-06T09:20:38;96366.47;;;14.71;81.47
77631;BME280;66798;47.370;8.552;2023-08-06T09:23:08;96363.25;;;14.82;79.87
77631;BME280;66798;47.370;8.552;2023-08-06T09:25:38;96365.72;;;14.79;81.59
77631;BME280;66798;47.370;8.552;2023-08-06T09:28:05;96382.00;;;14.86;81.05
77631;BME280;66798;47.370;8.552;2023-08-06T09:30:33;96349.75;;;14.70;79.71
77631;BME280;66798;47.370;8.552;2023-08-06T09:32:59;96370.69;;;14.94;80.72
77631;BME280;66798;47.370;8.552;2023-08-06T09:35:28;96371.78;;;14.93;80.66
77631;BME280;66798;47.370;8.552;2023-08-06T09:37:54;96382.84;;;14.95;79.72
77631;BME280;66798;47.370;8.552;2023-08-06T09:40:30;96379.78;;;15.02;81.80
77631;BME280;66798;47.370;8.552;2023-08-06T09:42:57;96377.91;;;15.02;79.84
77631;BME280;66798;47.370;8.552;2023-08-06T09:45:24;96376.47;;;15.19;78.97
77631;BME280;66798;47.370;8.552;2023-08-06T09:47:56;96378.03;;;15.42;78.68
77631;BME280;66798;47.370;8.552;2023-08-06T09:50:22;96385.13;;;15.78;78.44
77631;BME280;66798;47.370;8.552;2023-08-06T09:52:50;96389.88;;;15.90;78.11
77631;BME280;66798;47.370;8.552;2023-08-06T09:55:17;96384.78;;;16.11;78.38
77631;BME280;66798;47.370;8.552;2023-08-06T09:57:43;96388.97;;;16.61;76.68
77631;BME280;66798;47.370;8.552;2023-08-06T10:00:10;96405.25;;;16.76;75.14
77631;BME280;66798;47.370;8.552;2023-08-06T10:02:40;96407.03;;;16.41;75.45
77631;BME280;66798;47.370;8.552;2023-08-06T10:05:07;96401.44;;;16.51;77.05
77631;BME280;66798;47.370;8.552;2023-08-06T10:07:34;96412.56;;;16.13;76.45
77631;BME280;66798;47.370;8.552;2023-08-06T10:09:59;96415.78;;;15.93;76.47
77631;BME280;66798;47.370;8.552;2023-08-06T10:12:29;96428.94;;;15.76;76.40
77631;BME280;66798;47.370;8.552;2023-08-06T10:14:59;96419.66;;;15.42;78.51
77631;BME280;66798;47.370;8.552;2023-08-06T10:17:28;96433.63;;;15.34;78.63
77631;BME280;66798;47.370;8.552;2023-08-06T10:19:54;96431.16;;;15.37;79.02
77631;BME280;66798;47.370;8.552;2023-08-06T10:22:21;96429.09;;;15.12;79.44
77631;BME280;66798;47.370;8.552;2023-08-06T10:24:53;96426.41;;;14.89;79.20
77631;BME280;66798;47.370;8.552;2023-08-06T10:27:33;96429.38;;;14.88;78.85
77631;BME280;66798;47.370;8.552;2023-08-06T10:30:24;96429.88;;;14.76;81.09
77631;BME280;66798;47.370;8.552;2023-08-06T10:32:55;96429.31;;;14.65;80.20
77631;BME280;66798;47.370;8.552;2023-08-06T10:35:40;96436.78;;;14.99;81.63
77631;BME280;66798;47.370;8.552;2023-08-06T10:40:42;96427.13;;;15.17;81.15
77631;BME280;66798;47.370;8.552;2023-08-06T10:43:07;96433.34;;;15.35;80.86
77631;BME280;66798;47.370;8.552;2023-08-06T10:45:37;96435.63;;;15.50;81.29
77631;BME280;66798;47.370;8.552;2023-08-06T10:48:04;96430.03;;;15.52;80.86
77631;BME280;66798;47.370;8.552;2023-08-06T10:50:30;96438.06;;;15.69;80.77
77631;BME280;66798;47.370;8.552;2023-08-06T10:52:57;96449.41;;;15.39;80.56
77631;BME280;66798;47.370;8.552;2023-08-06T10:55:27;96448.19;;;15.22;82.13
77631;BME280;66798;47.370;8.552;2023-08-06T10:57:55;96453.38;;;15.27;82.04
77631;BME280;66798;47.370;8.552;2023-08-06T11:00:22;96445.31;;;15.33;82.49
77631;BME280;66798;47.370;8.552;2023-08-06T11:02:52;96450.06;;;15.44;80.87
77631;BME280;66798;47.370;8.552;2023-08-06T11:05:18;96439.22;;;15.32;82.03
77631;BME280;66798;47.370;8.552;2023-08-06T11:07:44;96447.47;;;15.53;80.10
77631;BME280;66798;47.370;8.552;2023-08-06T11:10:12;96456.94;;;15.68;79.78
77631;BME280;66798;47.370;8.552;2023-08-06T11:12:38;96437.00;;;15.70;79.60
77631;BME280;66798;47.370;8.552;2023-08-06T11:15:04;96446.31;;;15.68;80.00
77631;BME280;66798;47.370;8.552;2023-08-06T11:17:32;96450.53;;;15.83;78.67
77631;BME280;66798;47.370;8.552;2023-08-06T11:20:04;96442.78;;;15.95;78.09
77631;BME280;66798;47.370;8.552;2023-08-06T11:22:30;96452.91;;;15.93;79.08
77631;BME280;66798;47.370;8.552;2023-08-06T11:24:56;96434.34;;;15.93;80.20
77631;BME280;66798;47.370;8.552;2023-08-06T11:27:22;96450.31;;;16.02;79.20
77631;BME280;66798;47.370;8.552;2023-08-06T11:29:48;96437.69;;;15.76;78.47
77631;BME280;66798;47.370;8.552;2023-08-06T11:32:13;96436.59;;;15.77;78.41
77631;BME280;66798;47.370;8.552;2023-08-06T11:34:39;96431.72;;;16.02;80.21
77631;BME280;66798;47.370;8.552;2023-08-06T11:37:06;96435.88;;;16.25;79.98
77631;BME280;66798;47.370;8.552;2023-08-06T11:39:33;96442.06;;;16.12;80.91
77631;BME280;66798;47.370;8.552;2023-08-06T11:41:58;96452.97;;;16.10;80.65
77631;BME280;66798;47.370;8.552;2023-08-06T11:44:30;96458.63;;;16.09;78.39
77631;BME280;66798;47.370;8.552;2023-08-06T11:46:58;96443.81;;;15.85;79.96
77631;BME280;66798;47.370;8.552;2023-08-06T11:49:45;96443.25;;;15.97;80.11
77631;BME280;66798;47.370;8.552;2023-08-06T11:52:19;96457.44;;;15.70;78.48
77631;BME280;66798;47.370;8.552;2023-08-06T11:54:46;96456.28;;;15.62;80.15
77631;BME280;66798;47.370;8.552;2023-08-06T11:57:12;96455.75;;;15.74;80.51
77631;BME280;66798;47.370;8.552;2023-08-06T11:59:39;96460.28;;;15.74;79.76
77631;BME280;66798;47.370;8.552;2023-08-06T12:02:07;96450.78;;;15.59;80.04
77631;BME280;66798;47.370;8.552;2023-08-06T12:04:58;96452.50;;;15.77;79.99
77631;BME280;66798;47.370;8.552;2023-08-06T12:07:32;96456.34;;;15.93;79.17
77631;BME280;66798;47.370;8.552;2023-08-06T12:09:58;96448.72;;;16.01;78.11
77631;BME280;66798;47.370;8.552;2023-08-06T12:12:24;96449.66;;;16.36;79.93
77631;BME280;66798;47.370;8.552;2023-08-06T12:14:50;96448.13;;;16.44;77.99
77631;BME280;66798;47.370;8.552;2023-08-06T12:17:16;96454.03;;;16.41;78.87
77631;BME280;66798;47.370;8.552;2023-08-06T12:19:41;96456.75;;;16.58;77.81
77631;BME280;66798;47.370;8.552;2023-08-06T12:22:06;96456.59;;;16.54;77.35
77631;BME280;66798;47.370;8.552;2023-08-06T12:24:32;96449.03;;;16.30;76.56
77631;BME280;66798;47.370;8.552;2023-08-06T12:26:58;96446.75;;;16.15;76.61
77631;BME280;66798;47.370;8.552;2023-08-06T12:29:25;96459.06;;;16.42;78.70
77631;BME280;66798;47.370;8.552;2023-08-06T12:31:50;96449.56;;;16.50;75.90
77631;BME280;66798;47.370;8.552;2023-08-06T12:34:16;96461.81;;;16.37;75.82
77631;BME280;66798;47.370;8.552;2023-08-06T12:36:41;96469.06;;;16.54;76.57
77631;BME280;66798;47.370;8.552;2023-08-06T12:39:06;96467.25;;;16.23;74.88
77631;BME280;66798;47.370;8.552;2023-08-06T12:41:32;96475.91;;;16.06;76.11
77631;BME280;66798;47.370;8.552;2023-08-06T12:43:57;96484.03;;;15.79;74.53
77631;BME280;66798;47.370;8.552;2023-08-06T12:46:23;96482.13;;;15.57;77.92
77631;BME280;66798;47.370;8.552;2023-08-06T12:48:48;96485.81;;;15.69;78.12
77631;BME280;66798;47.370;8.552;2023-08-06T12:51:14;96488.69;;;15.73;78.77
77631;BME280;66798;47.370;8.552;2023-08-06T12:53:39;96484.25;;;15.91;78.61
77631;BME280;66798;47.370;8.552;2023-08-06T12:56:05;96497.56;;;16.00;78.29
77631;BME280;66798;47.370;8.552;2023-08-06T12:58:30;96507.31;;;16.13;78.29
77631;BME280;66798;47.370;8.552;2023-08-06T13:00:56;96509.97;;;16.13;78.05
77631;BME280;66798;47.370;8.552;2023-08-06T13:03:22;96484.13;;;16.27;76.64
77631;BME280;66798;47.370;8.552;2023-08-06T13:05:47;96496.91;;;16.25;72.98
77631;BME280;66798;47.370;8.552;2023-08-06T13:08:12;96514.69;;;16.16;73.70
77631;BME280;66798;47.370;8.552;2023-08-06T13:10:38;96498.28;;;16.14;73.33
77631;BME280;66798;47.370;8.552;2023-08-06T13:13:03;96510.97;;;16.26;72.34
77631;BME280;66798;47.370;8.552;2023-08-06T13:15:29;96507.44;;;16.08;72.31
77631;BME280;66798;47.370;8.552;2023-08-06T13:17:54;96504.31;;;16.06;74.55
77631;BME280;66798;47.370;8.552;2023-08-06T13:20:20;96497.56;;;16.00;75.45
77631;BME280;66798;47.370;8.552;2023-08-06T13:22:46;96498.63;;;15.54;75.39
77631;BME280;66798;47.370;8.552;2023-08-06T13:25:12;96500.56;;;15.76;79.27
77631;BME280;66798;47.370;8.552;2023-08-06T13:27:40;96495.31;;;16.16;79.35
77631;BME280;66798;47.370;8.552;2023-08-06T13:30:06;96493.75;;;16.14;78.08
77631;BME280;66798;47.370;8.552;2023-08-06T13:32:32;96493.19;;;16.35;74.84
77631;BME280;66798;47.370;8.552;2023-08-06T13:34:59;96491.22;;;16.41;75.49
77631;BME280;66798;47.370;8.552;2023-08-06T13:37:24;96497.25;;;16.32;73.42
77631;BME280;66798;47.370;8.552;2023-08-06T13:39:50;96492.59;;;16.38;73.47
77631;BME280;66798;47.370;8.552;2023-08-06T13:42:15;96498.50;;;16.66;71.51
77631;BME280;66798;47.370;8.552;2023-08-06T13:44:40;96498.13;;;16.90;72.07
77631;BME280;66798;47.370;8.552;2023-08-06T13:47:06;96488.75;;;16.93;70.70
77631;BME280;66798;47.370;8.552;2023-08-06T13:49:31;96500.16;;;16.93;69.40
77631;BME280;66798;47.370;8.552;2023-08-06T13:51:57;96495.91;;;16.84;67.19
77631;BME280;66798;47.370;8.552;2023-08-06T13:54:22;96506.47;;;16.66;67.72
77631;BME280;66798;47.370;8.552;2023-08-06T13:56:48;96506.22;;;16.85;68.73
77631;BME280;66798;47.370;8.552;2023-08-06T13:59:15;96507.00;;;16.94;69.15
77631;BME280;66798;47.370;8.552;2023-08-06T14:01:42;96506.56;;;17.01;68.10
77631;BME280;66798;47.370;8.552;2023-08-06T14:04:07;96521.06;;;16.86;68.92
77631;BME280;66798;47.370;8.552;2023-08-06T14:06:33;96529.03;;;16.46;72.70
77631;BME280;66798;47.370;8.552;2023-08-06T14:08:59;96533.47;;;16.28;74.16
77631;BME280;66798;47.370;8.552;2023-08-06T14:11:24;96530.91;;;16.46;74.20
77631;BME280;66798;47.370;8.552;2023-08-06T14:13:49;96540.25;;;16.43;72.69
77631;BME280;66798;47.370;8.552;2023-08-06T14:16:15;96547.34;;;16.56;73.71
77631;BME280;66798;47.370;8.552;2023-08-06T14:18:40;96540.75;;;16.45;72.60
77631;BME280;66798;47.370;8.552;2023-08-06T14:21:06;96547.13;;;16.13;70.39
77631;BME280;66798;47.370;8.552;2023-08-06T14:23:32;96554.63;;;15.88;73.69
77631;BME280;66798;47.370;8.552;2023-08-06T14:25:57;96550.75;;;15.95;75.16
77631;BME280;66798;47.370;8.552;2023-08-06T14:28:23;96551.66;;;15.90;74.36
77631;BME280;66798;47.370;8.552;2023-08-06T14:30:48;96551.13;;;16.02;73.84
77631;BME280;66798;47.370;8.552;2023-08-06T14:33:13;96548.91;;;16.26;73.93
77631;BME280;66798;47.370;8.552;2023-08-06T14:35:39;96554.84;;;16.01;70.79
77631;BME280;66798;47.370;8.552;2023-08-06T14:38:04;96557.06;;;16.07;71.68
77631;BME280;66798;47.370;8.552;2023-08-06T14:40:30;96562.19;;;16.26;72.45
77631;BME280;66798;47.370;8.552;2023-08-06T14:43:00;96576.22;;;16.49;71.72
77631;BME280;66798;47.370;8.552;2023-08-06T14:45:26;96569.81;;;16.50;70.15
77631;BME280;66798;47.370;8.552;2023-08-06T14:47:52;96569.84;;;16.59;69.57
77631;BME280;66798;47.370;8.552;2023-08-06T14:50:17;96578.94;;;16.67;70.73
77631;BME280;66798;47.370;8.552;2023-08-06T14:52:42;96573.84;;;16.48;68.35
77631;BME280;66798;47.370;8.552;2023-08-06T14:55:08;96572.06;;;16.34;69.29
77631;BME280;66798;47.370;8.552;2023-08-06T14:57:33;96576.53;;;16.25;69.08
77631;BME280;66798;47.370;8.552;2023-08-06T14:59:59;96586.72;;;16.32;67.27
77631;BME280;66798;47.370;8.552;2023-08-06T15:02:25;96579.63;;;16.19;67.84
77631;BME280;66798;47.370;8.552;2023-08-06T15:04:51;96583.06;;;16.19;70.82
77631;BME280;66798;47.370;8.552;2023-08-06T15:07:16;96603.91;;;16.34;71.72
77631;BME280;66798;47.370;8.552;2023-08-06T15:09:42;96599.97;;;16.54;69.75
77631;BME280;66798;47.370;8.552;2023-08-06T15:12:08;96601.31;;;16.43;67.68
77631;BME280;66798;47.370;8.552;2023-08-06T15:14:33;96600.69;;;16.69;66.06
77631;BME280;66798;47.370;8.552;2023-08-06T15:16:59;96607.28;;;16.80;66.19
77631;BME280;66798;47.370;8.552;2023-08-06T15:19:24;96610.38;;;16.73;64.22
77631;BME280;66798;47.370;8.552;2023-08-06T15:21:50;96612.19;;;16.87;64.85
77631;BME280;66798;47.370;8.552;2023-08-06T15:24:16;96617.25;;;16.74;63.66
77631;BME280;66798;47.370;8.552;2023-08-06T15:26:41;96613.63;;;16.70;62.07
77631;BME280;66798;47.370;8.552;2023-08-06T15:29:07;96612.66;;;16.58;63.89
77631;BME280;66798;47.370;8.552;2023-08-06T15:31:37;96606.22;;;16.27;64.17
77631;BME280;66798;47.370;8.552;2023-08-06T15:34:04;96617.09;;;15.95;66.96
77631;BME280;66798;47.370;8.552;2023-08-06T15:36:30;96623.75;;;15.92;67.19
77631;BME280;66798;47.370;8.552;2023-08-06T15:38:55;96619.47;;;15.82;67.12
77631;BME280;66798;47.370;8.552;2023-08-06T15:41:21;96627.31;;;15.87;66.98
77631;BME280;66798;47.370;8.552;2023-08-06T15:43:46;96636.63;;;15.85;66.10
77631;BME280;66798;47.370;8.552;2023-08-06T15:46:12;96628.88;;;15.88;66.89
77631;BME280;66798;47.370;8.552;2023-08-06T15:48:37;96633.06;;;16.03;66.03
77631;BME280;66798;47.370;8.552;2023-08-06T15:51:02;96631.13;;;15.95;65.88
77631;BME280;66798;47.370;8.552;2023-08-06T15:53:28;96633.00;;;16.17;65.52
77631;BME280;66798;47.370;8.552;2023-08-06T15:55:54;96640.84;;;16.22;64.29
77631;BME280;66798;47.370;8.552;2023-08-06T15:58:19;96642.44;;;16.23;64.76
77631;BME280;66798;47.370;8.552;2023-08-06T16:00:45;96637.53;;;16.39;64.57
77631;BME280;66798;47.370;8.552;2023-08-06T16:03:10;96643.25;;;16.32;64.41
77631;BME280;66798;47.370;8.552;2023-08-06T16:05:36;96640.50;;;16.38;63.30
77631;BME280;66798;47.370;8.552;2023-08-06T16:08:01;96640.59;;;16.32;64.20
77631;BME280;66798;47.370;8.552;2023-08-06T16:10:26;96648.19;;;16.25;63.39
77631;BME280;66798;47.370;8.552;2023-08-06T16:12:52;96648.28;;;16.11;63.94
77631;BME280;66798;47.370;8.552;2023-08-06T16:15:17;96649.53;;;16.14;64.05
77631;BME280;66798;47.370;8.552;2023-08-06T16:17:46;96648.16;;;16.17;64.14
77631;BME280;66798;47.370;8.552;2023-08-06T16:20:12;96658.53;;;16.27;63.50
77631;BME280;66798;47.370;8.552;2023-08-06T16:22:40;96667.56;;;16.26;62.08
77631;BME280;66798;47.370;8.552;2023-08-06T16:25:06;96678.72;;;16.14;61.25
77631;BME280;66798;47.370;8.552;2023-08-06T16:27:35;96679.53;;;16.01;61.87
77631;BME280;66798;47.370;8.552;2023-08-06T16:30:00;96677.19;;;15.99;63.22
77631;BME280;66798;47.370;8.552;2023-08-06T16:32:26;96678.72;;;16.14;62.90
77631;BME280;66798;47.370;8.552;2023-08-06T16:34:51;96670.03;;;16.00;61.03
77631;BME280;66798;47.370;8.552;2023-08-06T16:37:18;96677.38;;;16.03;61.98
77631;BME280;66798;47.370;8.552;2023-08-06T16:39:43;96676.13;;;15.86;61.66
77631;BME280;66798;47.370;8.552;2023-08-06T16:42:08;96669.53;;;15.98;62.37
77631;BME280;66798;47.370;8.552;2023-08-06T16:44:34;96672.72;;;16.08;62.99
77631;BME280;66798;47.370;8.552;2023-08-06T16:46:59;96671.59;;;16.01;61.90
77631;BME280;66798;47.370;8.552;2023-08-06T16:49:26;96678.88;;;15.95;60.89
77631;BME280;66798;47.370;8.552;2023-08-06T16:51:51;96691.38;;;15.95;61.30
77631;BME280;66798;47.370;8.552;2023-08-06T16:54:16;96687.13;;;15.93;61.72
77631;BME280;66798;47.370;8.552;2023-08-06T16:56:42;96694.84;;;16.04;62.47
77631;BME280;66798;47.370;8.552;2023-08-06T16:59:07;96705.41;;;15.95;68.09
77631;BME280;66798;47.370;8.552;2023-08-06T17:01:33;96703.66;;;15.21;71.62
77631;BME280;66798;47.370;8.552;2023-08-06T17:04:00;96713.06;;;15.27;75.65
77631;BME280;66798;47.370;8.552;2023-08-06T17:06:26;96705.56;;;14.88;74.86
77631;BME280;66798;47.370;8.552;2023-08-06T17:08:51;96710.00;;;14.93;76.34
77631;BME280;66798;47.370;8.552;2023-08-06T17:11:16;96704.78;;;15.01;76.22
77631;BME280;66798;47.370;8.552;2023-08-06T17:13:42;96701.47;;;15.10;72.93
77631;BME280;66798;47.370;8.552;2023-08-06T17:16:07;96693.25;;;15.25;74.68
77631;BME280;66798;47.370;8.552;2023-08-06T17:18:33;96697.00;;;15.38;74.30
77631;BME280;66798;47.370;8.552;2023-08-06T17:20:59;96703.06;;;15.38;71.33
77631;BME280;66798;47.370;8.552;2023-08-06T17:23:25;96705.50;;;15.35;70.70
77631;BME280;66798;47.370;8.552;2023-08-06T17:25:53;96706.63;;;15.47;72.48
77631;BME280;66798;47.370;8.552;2023-08-06T17:28:18;96709.94;;;15.39;69.88
77631;BME280;66798;47.370;8.552;2023-08-06T17:30:44;96704.25;;;15.60;70.27
77631;BME280;66798;47.370;8.552;2023-08-06T17:33:10;96704.03;;;15.56;68.99
77631;BME280;66798;47.370;8.552;2023-08-06T17:35:39;96709.06;;;15.58;68.00
77631;BME280;66798;47.370;8.552;2023-08-06T17:38:05;96716.50;;;15.56;68.31
77631;BME280;66798;47.370;8.552;2023-08-06T17:40:31;96723.88;;;15.59;67.31
77631;BME280;66798;47.370;8.552;2023-08-06T17:42:56;96734.78;;;15.57;66.74
77631;BME280;66798;47.370;8.552;2023-08-06T17:45:22;96735.78;;;15.61;66.88
77631;BME280;66798;47.370;8.552;2023-08-06T17:47:48;96730.56;;;15.56;66.22
77631;BME280;66798;47.370;8.552;2023-08-06T17:50:14;96737.72;;;15.42;66.03
77631;BME280;66798;47.370;8.552;2023-08-06T17:52:39;96741.06;;;15.34;65.43
77631;BME280;66798;47.370;8.552;2023-08-06T17:55:05;96735.75;;;15.20;65.86
77631;BME280;66798;47.370;8.552;2023-08-06T17:57:31;96743.09;;;15.23;65.88
77631;BME280;66798;47.370;8.552;2023-08-06T17:59:56;96747.53;;;15.14;66.94
77631;BME280;66798;47.370;8.552;2023-08-06T18:02:22;96750.34;;;15.17;63.52
77631;BME280;66798;47.370;8.552;2023-08-06T18:04:47;96758.31;;;15.17;65.87
77631;BME280;66798;47.370;8.552;2023-08-06T18:07:13;96760.63;;;15.05;64.89
77631;BME280;66798;47.370;8.552;2023-08-06T18:09:39;96758.44;;;14.93;64.76
77631;BME280;66798;47.370;8.552;2023-08-06T18:12:04;96749.97;;;14.77;64.76
77631;BME280;66798;47.370;8.552;2023-08-06T18:14:30;96754.06;;;14.70;64.65
77631;BME280;66798;47.370;8.552;2023-08-06T18:16:55;96748.59;;;14.80;65.42
77631;BME280;66798;47.370;8.552;2023-08-06T18:19:24;96745.78;;;14.57;64.79
77631;BME280;66798;47.370;8.552;2023-08-06T18:21:49;96749.25;;;14.72;65.85